sensor_id;sensor_type;location;lat;lon;timestamp;P1;durP1;ratioP1;P2;durP2;ratioP2
7523;SDS011;3803;51.666;7.630;2022-12-29T00:00:13;1.60;;;1.50;;
7523;SDS011;3803;51.666;7.630;2022-12-29T00:00:34;1.70;;;1.60;;
7523;SDS011;3803;51.666;7.630;2022-12-29T00:00:55;1.80;;;1.70;;
7523;SDS011;3803;51.666;7.630;2022-12-29T00:01:15;1.80;;;1.70;;
7523;SDS011;3803;51.666;7.630;2022-12-29T00:01:36;1.80;;;1.70;;
7523;SDS011;3803;51.666;7.630;2022-12-29T00:01:57;1.63;;;1.52;;
7523;SDS011;3803;51.666;7.630;2022-12-29T00:02:18;1.60;;;1.50;;
7523;SDS011;3803;51.666;7.630;2022-12-29T00:02:38;1.45;;;1.35;;
7523;SDS011;3803;51.666;7.630;2022-12-29T00:02:59;1.50;;;1.40;;
7523;SDS011;3803;51.666;7.630;2022-12-29T00:03:19;1.60;;;1.50;;
7523;SDS011;3803;51.666;7.630;2022-12-29T00:03:40;1.70;;;1.60;;
7523;SDS011;3803;51.666;7.630;2022-12-29T00:04:01;1.70;;;1.60;;
7523;SDS011;3803;51.666;7.630;2022-12-29T00:04:21;1.70;;;1.60;;
7523;SDS011;3803;51.666;7.630;2022-12-29T00:04:42;2.38;;;1.50;;
7523;SDS011;3803;51.666;7.630;2022-12-29T00:05:03;2.20;;;1.50;;
7523;SDS011;3803;51.666;7.630;2022-12-29T00:05:24;2.20;;;1.30;;
7523;SDS011;3803;51.666;7.630;2022-12-29T00:05:44;1.50;;;1.40;;
7523;SDS011;3803;51.666;7.630;2022-12-29T00:06:05;1.50;;;1.40;;
7523;SDS011;3803;51.666;7.630;2022-12-29T00:06:26;1.50;;;1.40;;
7523;SDS011;3803;51.666;7.630;2022-12-29T00:06:47;1.50;;;1.40;;
7523;SDS011;3803;51.666;7.630;2022-12-29T00:07:08;1.47;;;1.37;;
7523;SDS011;3803;51.666;7.630;2022-12-29T00:07:29;1.50;;;1.40;;
7523;SDS011;3803;51.666;7.630;2022-12-29T00:07:50;1.50;;;1.40;;
7523;SDS011;3803;51.666;7.630;2022-12-29T00:08:10;1.70;;;1.60;;
7523;SDS011;3803;51.666;7.630;2022-12-29T00:08:31;1.60;;;1.50;;
7523;SDS011;3803;51.666;7.630;2022-12-29T00:09:00;1.48;;;1.38;;
7523;SDS011;3803;51.666;7.630;2022-12-29T00:09:21;1.40;;;1.30;;
7523;SDS011;3803;51.666;7.630;2022-12-29T00:09:41;1.40;;;1.30;;
7523;SDS011;3803;51.666;7.630;2022-12-29T00:10:02;1.40;;;1.40;;
7523;SDS011;3803;51.666;7.630;2022-12-29T00:10:23;1.60;;;1.50;;
7523;SDS011;3803;51.666;7.630;2022-12-29T00:10:44;1.70;;;1.60;;
7523;SDS011;3803;51.666;7.630;2022-12-29T00:11:18;2.00;;;1.70;;
7523;SDS011;3803;51.666;7.630;2022-12-29T00:11:42;1.90;;;1.60;;
7523;SDS011;3803;51.666;7.630;2022-12-29T00:12:03;1.60;;;1.50;;
7523;SDS011;3803;51.666;7.630;2022-12-29T00:12:24;1.40;;;1.30;;
7523;SDS011;3803;51.666;7.630;2022-12-29T00:13:05;1.40;;;1.40;;
7523;SDS011;3803;51.666;7.630;2022-12-29T00:13:45;1.60;;;1.50;;
7523;SDS011;3803;51.666;7.630;2022-12-29T00:14:25;1.40;;;1.30;;
7523;SDS011;3803;51.666;7.630;2022-12-29T00:15:06;1.67;;;1.58;;
7523;SDS011;3803;51.666;7.630;2022-12-29T00:15:45;1.70;;;1.60;;
7523;SDS011;3803;51.666;7.630;2022-12-29T00:16:06;1.60;;;1.50;;
7523;SDS011;3803;51.666;7.630;2022-12-29T00:16:27;1.50;;;1.40;;
7523;SDS011;3803;51.666;7.630;2022-12-29T00:16:48;1.40;;;1.30;;
7523;SDS011;3803;51.666;7.630;2022-12-29T00:17:09;1.75;;;1.40;;
7523;SDS011;3803;51.666;7.630;2022-12-29T00:17:29;1.50;;;1.40;;
7523;SDS011;3803;51.666;7.630;2022-12-29T00:17:50;1.67;;;1.58;;
7523;SDS011;3803;51.666;7.630;2022-12-29T00:18:10;1.50;;;1.40;;
7523;SDS011;3803;51.666;7.630;2022-12-29T00:18:31;1.70;;;1.60;;
7523;SDS011;3803;51.666;7.630;2022-12-29T00:18:52;1.50;;;1.40;;
7523;SDS011;3803;51.666;7.630;2022-12-29T00:19:12;1.53;;;1.40;;
7523;SDS011;3803;51.666;7.630;2022-12-29T00:19:52;1.50;;;1.40;;
7523;SDS011;3803;51.666;7.630;2022-12-29T00:20:33;1.40;;;1.30;;
7523;SDS011;3803;51.666;7.630;2022-12-29T00:21:15;1.42;;;1.33;;
7523;SDS011;3803;51.666;7.630;2022-12-29T00:21:57;1.50;;;1.40;;
7523;SDS011;3803;51.666;7.630;2022-12-29T00:22:37;1.50;;;1.40;;
7523;SDS011;3803;51.666;7.630;2022-12-29T00:23:19;1.40;;;1.30;;
7523;SDS011;3803;51.666;7.630;2022-12-29T00:23:58;1.58;;;1.48;;
7523;SDS011;3803;51.666;7.630;2022-12-29T00:24:37;1.20;;;1.20;;
7523;SDS011;3803;51.666;7.630;2022-12-29T00:25:16;1.30;;;1.20;;
7523;SDS011;3803;51.666;7.630;2022-12-29T00:25:56;1.27;;;1.17;;
7523;SDS011;3803;51.666;7.630;2022-12-29T00:26:36;1.35;;;1.20;;
7523;SDS011;3803;51.666;7.630;2022-12-29T00:27:14;1.20;;;1.20;;
7523;SDS011;3803;51.666;7.630;2022-12-29T00:27:53;1.20;;;1.20;;
7523;SDS011;3803;51.666;7.630;2022-12-29T00:28:33;1.50;;;1.40;;
7523;SDS011;3803;51.666;7.630;2022-12-29T00:29:12;1.48;;;1.38;;
7523;SDS011;3803;51.666;7.630;2022-12-29T00:29:51;1.40;;;1.30;;
7523;SDS011;3803;51.666;7.630;2022-12-29T00:30:30;2.40;;;1.30;;
7523;SDS011;3803;51.666;7.630;2022-12-29T00:31:11;2.20;;;1.30;;
7523;SDS011;3803;51.666;7.630;2022-12-29T00:31:51;1.40;;;1.30;;
7523;SDS011;3803;51.666;7.630;2022-12-29T00:32:42;1.40;;;1.30;;
7523;SDS011;3803;51.666;7.630;2022-12-29T00:33:22;1.30;;;1.20;;
7523;SDS011;3803;51.666;7.630;2022-12-29T00:34:09;1.40;;;1.30;;
7523;SDS011;3803;51.666;7.630;2022-12-29T00:34:49;2.10;;;1.40;;
7523;SDS011;3803;51.666;7.630;2022-12-29T00:35:31;2.20;;;1.40;;
7523;SDS011;3803;51.666;7.630;2022-12-29T00:36:01;1.27;;;1.17;;
7523;SDS011;3803;51.666;7.630;2022-12-29T00:36:25;1.27;;;1.17;;
7523;SDS011;3803;51.666;7.630;2022-12-29T00:36:50;1.30;;;1.20;;
7523;SDS011;3803;51.666;7.630;2022-12-29T00:37:10;1.40;;;1.30;;
7523;SDS011;3803;51.666;7.630;2022-12-29T00:37:31;1.60;;;1.50;;
7523;SDS011;3803;51.666;7.630;2022-12-29T00:38:10;1.60;;;1.50;;
7523;SDS011;3803;51.666;7.630;2022-12-29T00:38:51;1.30;;;1.20;;
7523;SDS011;3803;51.666;7.630;2022-12-29T00:39:33;1.30;;;1.20;;
7523;SDS011;3803;51.666;7.630;2022-12-29T00:40:12;1.30;;;1.20;;
7523;SDS011;3803;51.666;7.630;2022-12-29T00:40:52;1.40;;;1.30;;
7523;SDS011;3803;51.666;7.630;2022-12-29T00:41:31;2.50;;;1.40;;
7523;SDS011;3803;51.666;7.630;2022-12-29T00:42:10;1.52;;;1.20;;
7523;SDS011;3803;51.666;7.630;2022-12-29T00:42:48;1.38;;;1.27;;
7523;SDS011;3803;51.666;7.630;2022-12-29T00:43:28;1.38;;;1.20;;
7523;SDS011;3803;51.666;7.630;2022-12-29T00:44:07;1.40;;;1.30;;
7523;SDS011;3803;51.666;7.630;2022-12-29T00:44:30;1.80;;;1.30;;
7523;SDS011;3803;51.666;7.630;2022-12-29T00:44:50;2.10;;;1.30;;
7523;SDS011;3803;51.666;7.630;2022-12-29T00:45:11;2.30;;;1.20;;
7523;SDS011;3803;51.666;7.630;2022-12-29T00:45:32;2.00;;;1.20;;
7523;SDS011;3803;51.666;7.630;2022-12-29T00:45:52;1.50;;;1.20;;
7523;SDS011;3803;51.666;7.630;2022-12-29T00:46:13;1.40;;;1.30;;
7523;SDS011;3803;51.666;7.630;2022-12-29T00:46:33;1.40;;;1.30;;
7523;SDS011;3803;51.666;7.630;2022-12-29T00:46:55;1.48;;;1.38;;
7523;SDS011;3803;51.666;7.630;2022-12-29T00:47:16;1.40;;;1.30;;
7523;SDS011;3803;51.666;7.630;2022-12-29T00:47:37;1.40;;;1.30;;
7523;SDS011;3803;51.666;7.630;2022-12-29T00:47:57;1.30;;;1.20;;
7523;SDS011;3803;51.666;7.630;2022-12-29T00:48:18;1.40;;;1.30;;
7523;SDS011;3803;51.666;7.630;2022-12-29T00:48:57;1.40;;;1.30;;
7523;SDS011;3803;51.666;7.630;2022-12-29T00:49:36;1.15;;;1.10;;
7523;SDS011;3803;51.666;7.630;2022-12-29T00:49:57;1.30;;;1.20;;
7523;SDS011;3803;51.666;7.630;2022-12-29T00:50:18;1.40;;;1.30;;
7523;SDS011;3803;51.666;7.630;2022-12-29T00:50:38;1.50;;;1.40;;
7523;SDS011;3803;51.666;7.630;2022-12-29T00:50:59;1.35;;;1.25;;
7523;SDS011;3803;51.666;7.630;2022-12-29T00:51:19;1.30;;;1.20;;
7523;SDS011;3803;51.666;7.630;2022-12-29T00:51:40;1.20;;;1.10;;
7523;SDS011;3803;51.666;7.630;2022-12-29T00:52:03;1.30;;;1.20;;
7523;SDS011;3803;51.666;7.630;2022-12-29T00:52:25;1.20;;;1.10;;
7523;SDS011;3803;51.666;7.630;2022-12-29T00:52:45;1.25;;;1.15;;
7523;SDS011;3803;51.666;7.630;2022-12-29T00:53:06;1.10;;;1.10;;
7523;SDS011;3803;51.666;7.630;2022-12-29T00:53:27;1.02;;;1.02;;
7523;SDS011;3803;51.666;7.630;2022-12-29T00:53:47;1.15;;;1.10;;
7523;SDS011;3803;51.666;7.630;2022-12-29T00:54:08;1.30;;;1.20;;
7523;SDS011;3803;51.666;7.630;2022-12-29T00:54:29;1.30;;;1.20;;
7523;SDS011;3803;51.666;7.630;2022-12-29T00:54:51;1.10;;;1.10;;
7523;SDS011;3803;51.666;7.630;2022-12-29T00:55:12;1.10;;;1.10;;
7523;SDS011;3803;51.666;7.630;2022-12-29T00:55:36;1.20;;;1.10;;
7523;SDS011;3803;51.666;7.630;2022-12-29T00:55:57;1.20;;;1.10;;
7523;SDS011;3803;51.666;7.630;2022-12-29T00:56:18;1.30;;;1.20;;
7523;SDS011;3803;51.666;7.630;2022-12-29T00:56:39;1.25;;;1.15;;
7523;SDS011;3803;51.666;7.630;2022-12-29T00:57:00;1.37;;;1.27;;
7523;SDS011;3803;51.666;7.630;2022-12-29T00:57:21;1.10;;;1.10;;
7523;SDS011;3803;51.666;7.630;2022-12-29T00:57:42;1.30;;;1.20;;
7523;SDS011;3803;51.666;7.630;2022-12-29T00:58:02;1.10;;;1.10;;
7523;SDS011;3803;51.666;7.630;2022-12-29T00:58:23;1.20;;;1.20;;
7523;SDS011;3803;51.666;7.630;2022-12-29T00:58:43;1.20;;;1.20;;
7523;SDS011;3803;51.666;7.630;2022-12-29T00:59:05;1.40;;;1.30;;
7523;SDS011;3803;51.666;7.630;2022-12-29T00:59:36;1.35;;;1.25;;
7523;SDS011;3803;51.666;7.630;2022-12-29T00:59:58;1.10;;;1.10;;
7523;SDS011;3803;51.666;7.630;2022-12-29T01:00:18;1.10;;;1.10;;
7523;SDS011;3803;51.666;7.630;2022-12-29T01:00:39;1.00;;;1.00;;
7523;SDS011;3803;51.666;7.630;2022-12-29T01:01:15;1.30;;;1.20;;
7523;SDS011;3803;51.666;7.630;2022-12-29T01:01:36;1.40;;;1.30;;
7523;SDS011;3803;51.666;7.630;2022-12-29T01:01:57;1.20;;;1.10;;
7523;SDS011;3803;51.666;7.630;2022-12-29T01:02:18;1.10;;;1.00;;
7523;SDS011;3803;51.666;7.630;2022-12-29T01:02:40;0.90;;;0.90;;
7523;SDS011;3803;51.666;7.630;2022-12-29T01:03:01;0.98;;;0.98;;
7523;SDS011;3803;51.666;7.630;2022-12-29T01:03:21;1.10;;;1.10;;
7523;SDS011;3803;51.666;7.630;2022-12-29T01:03:42;1.23;;;1.20;;
7523;SDS011;3803;51.666;7.630;2022-12-29T01:04:03;1.30;;;1.20;;
7523;SDS011;3803;51.666;7.630;2022-12-29T01:04:25;1.30;;;1.20;;
7523;SDS011;3803;51.666;7.630;2022-12-29T01:04:46;1.10;;;1.10;;
7523;SDS011;3803;51.666;7.630;2022-12-29T01:05:06;1.20;;;1.20;;
7523;SDS011;3803;51.666;7.630;2022-12-29T01:05:27;1.17;;;1.17;;
7523;SDS011;3803;51.666;7.630;2022-12-29T01:05:48;1.10;;;1.10;;
7523;SDS011;3803;51.666;7.630;2022-12-29T01:06:09;1.00;;;1.00;;
7523;SDS011;3803;51.666;7.630;2022-12-29T01:06:31;1.00;;;1.00;;
7523;SDS011;3803;51.666;7.630;2022-12-29T01:06:52;1.30;;;1.20;;
7523;SDS011;3803;51.666;7.630;2022-12-29T01:07:13;1.70;;;1.20;;
7523;SDS011;3803;51.666;7.630;2022-12-29T01:07:34;1.70;;;1.20;;
7523;SDS011;3803;51.666;7.630;2022-12-29T01:07:56;1.30;;;1.10;;
7523;SDS011;3803;51.666;7.630;2022-12-29T01:08:17;1.17;;;1.08;;
7523;SDS011;3803;51.666;7.630;2022-12-29T01:08:39;1.02;;;1.00;;
7523;SDS011;3803;51.666;7.630;2022-12-29T01:08:59;1.00;;;1.00;;
7523;SDS011;3803;51.666;7.630;2022-12-29T01:09:38;1.00;;;1.00;;
7523;SDS011;3803;51.666;7.630;2022-12-29T01:10:20;1.10;;;1.00;;
7523;SDS011;3803;51.666;7.630;2022-12-29T01:10:41;1.30;;;1.13;;
7523;SDS011;3803;51.666;7.630;2022-12-29T01:11:03;2.10;;;1.20;;
7523;SDS011;3803;51.666;7.630;2022-12-29T01:11:25;2.58;;;1.20;;
7523;SDS011;3803;51.666;7.630;2022-12-29T01:11:45;2.20;;;1.10;;
7523;SDS011;3803;51.666;7.630;2022-12-29T01:12:06;1.20;;;1.08;;
7523;SDS011;3803;51.666;7.630;2022-12-29T01:12:28;1.10;;;1.00;;
7523;SDS011;3803;51.666;7.630;2022-12-29T01:13:03;1.10;;;0.90;;
7523;SDS011;3803;51.666;7.630;2022-12-29T01:13:24;1.10;;;1.00;;
7523;SDS011;3803;51.666;7.630;2022-12-29T01:13:44;1.10;;;1.00;;
7523;SDS011;3803;51.666;7.630;2022-12-29T01:14:05;1.30;;;1.20;;
7523;SDS011;3803;51.666;7.630;2022-12-29T01:14:26;1.13;;;1.13;;
7523;SDS011;3803;51.666;7.630;2022-12-29T01:14:47;1.30;;;1.20;;
7523;SDS011;3803;51.666;7.630;2022-12-29T01:15:08;1.27;;;1.17;;
7523;SDS011;3803;51.666;7.630;2022-12-29T01:15:31;1.20;;;1.10;;
7523;SDS011;3803;51.666;7.630;2022-12-29T01:15:52;1.20;;;1.00;;
7523;SDS011;3803;51.666;7.630;2022-12-29T01:16:13;2.35;;;1.10;;
7523;SDS011;3803;51.666;7.630;2022-12-29T01:16:35;2.30;;;1.10;;
7523;SDS011;3803;51.666;7.630;2022-12-29T01:16:58;1.80;;;1.10;;
7523;SDS011;3803;51.666;7.630;2022-12-29T01:17:19;1.00;;;1.00;;
7523;SDS011;3803;51.666;7.630;2022-12-29T01:17:40;1.02;;;1.02;;
7523;SDS011;3803;51.666;7.630;2022-12-29T01:18:01;1.00;;;1.00;;
7523;SDS011;3803;51.666;7.630;2022-12-29T01:18:24;1.10;;;1.00;;
7523;SDS011;3803;51.666;7.630;2022-12-29T01:18:45;1.10;;;1.00;;
7523;SDS011;3803;51.666;7.630;2022-12-29T01:19:06;1.40;;;1.00;;
7523;SDS011;3803;51.666;7.630;2022-12-29T01:19:26;1.20;;;1.00;;
7523;SDS011;3803;51.666;7.630;2022-12-29T01:19:49;1.23;;;1.00;;
7523;SDS011;3803;51.666;7.630;2022-12-29T01:20:10;1.10;;;1.00;;
7523;SDS011;3803;51.666;7.630;2022-12-29T01:20:31;1.10;;;1.00;;
7523;SDS011;3803;51.666;7.630;2022-12-29T01:21:01;1.10;;;1.00;;
7523;SDS011;3803;51.666;7.630;2022-12-29T01:21:25;2.20;;;1.10;;
7523;SDS011;3803;51.666;7.630;2022-12-29T01:21:46;2.20;;;1.00;;
7523;SDS011;3803;51.666;7.630;2022-12-29T01:22:07;1.10;;;1.00;;
7523;SDS011;3803;51.666;7.630;2022-12-29T01:22:27;1.10;;;0.90;;
7523;SDS011;3803;51.666;7.630;2022-12-29T01:22:49;1.50;;;1.00;;
7523;SDS011;3803;51.666;7.630;2022-12-29T01:23:13;1.23;;;1.00;;
7523;SDS011;3803;51.666;7.630;2022-12-29T01:23:45;3.00;;;1.20;;
7523;SDS011;3803;51.666;7.630;2022-12-29T01:24:06;2.70;;;1.15;;
7523;SDS011;3803;51.666;7.630;2022-12-29T01:24:58;1.10;;;1.00;;
7523;SDS011;3803;51.666;7.630;2022-12-29T01:25:18;1.10;;;1.00;;
7523;SDS011;3803;51.666;7.630;2022-12-29T01:25:39;1.20;;;1.10;;
7523;SDS011;3803;51.666;7.630;2022-12-29T01:26:09;1.30;;;1.20;;
7523;SDS011;3803;51.666;7.630;2022-12-29T01:26:33;1.30;;;1.20;;
7523;SDS011;3803;51.666;7.630;2022-12-29T01:26:54;1.27;;;1.17;;
7523;SDS011;3803;51.666;7.630;2022-12-29T01:27:15;1.30;;;1.20;;
7523;SDS011;3803;51.666;7.630;2022-12-29T01:27:41;1.27;;;1.17;;
7523;SDS011;3803;51.666;7.630;2022-12-29T01:28:02;1.20;;;1.10;;
7523;SDS011;3803;51.666;7.630;2022-12-29T01:28:23;1.10;;;1.00;;
7523;SDS011;3803;51.666;7.630;2022-12-29T01:28:44;1.10;;;1.00;;
7523;SDS011;3803;51.666;7.630;2022-12-29T01:29:05;0.90;;;0.90;;
7523;SDS011;3803;51.666;7.630;2022-12-29T01:29:25;1.00;;;0.90;;
7523;SDS011;3803;51.666;7.630;2022-12-29T01:29:46;1.00;;;0.90;;
7523;SDS011;3803;51.666;7.630;2022-12-29T01:30:06;1.00;;;0.90;;
7523;SDS011;3803;51.666;7.630;2022-12-29T01:30:28;0.90;;;0.90;;
7523;SDS011;3803;51.666;7.630;2022-12-29T01:30:48;0.90;;;0.90;;
7523;SDS011;3803;51.666;7.630;2022-12-29T01:31:26;0.80;;;0.80;;
7523;SDS011;3803;51.666;7.630;2022-12-29T01:31:47;1.00;;;1.00;;
7523;SDS011;3803;51.666;7.630;2022-12-29T01:32:09;1.20;;;1.10;;
7523;SDS011;3803;51.666;7.630;2022-12-29T01:32:30;1.10;;;1.00;;
7523;SDS011;3803;51.666;7.630;2022-12-29T01:32:52;0.90;;;0.90;;
7523;SDS011;3803;51.666;7.630;2022-12-29T01:33:14;0.90;;;0.90;;
7523;SDS011;3803;51.666;7.630;2022-12-29T01:33:35;0.90;;;0.90;;
7523;SDS011;3803;51.666;7.630;2022-12-29T01:33:56;1.20;;;1.10;;
7523;SDS011;3803;51.666;7.630;2022-12-29T01:34:16;1.30;;;1.20;;
7523;SDS011;3803;51.666;7.630;2022-12-29T01:34:37;1.30;;;1.20;;
7523;SDS011;3803;51.666;7.630;2022-12-29T01:34:58;1.10;;;1.00;;
7523;SDS011;3803;51.666;7.630;2022-12-29T01:35:19;1.00;;;0.90;;
7523;SDS011;3803;51.666;7.630;2022-12-29T01:35:40;0.90;;;0.90;;
7523;SDS011;3803;51.666;7.630;2022-12-29T01:36:01;1.00;;;1.00;;
7523;SDS011;3803;51.666;7.630;2022-12-29T01:36:24;0.90;;;0.90;;
7523;SDS011;3803;51.666;7.630;2022-12-29T01:36:45;1.00;;;1.00;;
7523;SDS011;3803;51.666;7.630;2022-12-29T01:37:06;0.90;;;0.90;;
7523;SDS011;3803;51.666;7.630;2022-12-29T01:37:27;1.15;;;1.10;;
7523;SDS011;3803;51.666;7.630;2022-12-29T01:37:48;1.10;;;1.00;;
7523;SDS011;3803;51.666;7.630;2022-12-29T01:38:08;1.02;;;1.00;;
7523;SDS011;3803;51.666;7.630;2022-12-29T01:38:29;0.83;;;0.83;;
7523;SDS011;3803;51.666;7.630;2022-12-29T01:38:50;0.90;;;0.80;;
7523;SDS011;3803;51.666;7.630;2022-12-29T01:39:11;1.00;;;0.90;;
7523;SDS011;3803;51.666;7.630;2022-12-29T01:39:32;1.17;;;1.00;;
7523;SDS011;3803;51.666;7.630;2022-12-29T01:39:52;1.20;;;1.10;;
7523;SDS011;3803;51.666;7.630;2022-12-29T01:40:13;1.30;;;1.20;;
7523;SDS011;3803;51.666;7.630;2022-12-29T01:40:33;1.38;;;1.27;;
7523;SDS011;3803;51.666;7.630;2022-12-29T01:40:54;1.30;;;1.20;;
7523;SDS011;3803;51.666;7.630;2022-12-29T01:41:15;1.00;;;1.00;;
7523;SDS011;3803;51.666;7.630;2022-12-29T01:41:37;1.10;;;1.00;;
7523;SDS011;3803;51.666;7.630;2022-12-29T01:41:58;1.20;;;1.10;;
7523;SDS011;3803;51.666;7.630;2022-12-29T01:42:19;1.20;;;1.10;;
7523;SDS011;3803;51.666;7.630;2022-12-29T01:42:44;1.20;;;1.10;;
7523;SDS011;3803;51.666;7.630;2022-12-29T01:43:07;0.90;;;0.90;;
7523;SDS011;3803;51.666;7.630;2022-12-29T01:43:41;1.10;;;1.00;;
7523;SDS011;3803;51.666;7.630;2022-12-29T01:44:39;1.10;;;1.00;;
7523;SDS011;3803;51.666;7.630;2022-12-29T01:45:10;0.90;;;0.90;;
7523;SDS011;3803;51.666;7.630;2022-12-29T01:45:34;1.08;;;1.00;;
7523;SDS011;3803;51.666;7.630;2022-12-29T01:45:55;0.90;;;0.90;;
7523;SDS011;3803;51.666;7.630;2022-12-29T01:46:47;1.00;;;0.90;;
7523;SDS011;3803;51.666;7.630;2022-12-29T01:47:09;1.10;;;1.00;;
7523;SDS011;3803;51.666;7.630;2022-12-29T01:47:40;1.90;;;1.00;;
7523;SDS011;3803;51.666;7.630;2022-12-29T01:48:04;1.70;;;1.00;;
7523;SDS011;3803;51.666;7.630;2022-12-29T01:48:28;0.82;;;0.82;;
7523;SDS011;3803;51.666;7.630;2022-12-29T01:48:50;0.90;;;0.90;;
7523;SDS011;3803;51.666;7.630;2022-12-29T01:49:18;0.90;;;0.90;;
7523;SDS011;3803;51.666;7.630;2022-12-29T01:49:41;1.00;;;1.00;;
7523;SDS011;3803;51.666;7.630;2022-12-29T01:50:04;1.05;;;0.90;;
7523;SDS011;3803;51.666;7.630;2022-12-29T01:50:58;1.00;;;0.80;;
7523;SDS011;3803;51.666;7.630;2022-12-29T01:51:18;0.80;;;0.80;;
7523;SDS011;3803;51.666;7.630;2022-12-29T01:51:44;0.80;;;0.80;;
7523;SDS011;3803;51.666;7.630;2022-12-29T01:52:24;1.10;;;0.90;;
7523;SDS011;3803;51.666;7.630;2022-12-29T01:52:56;1.58;;;1.10;;
7523;SDS011;3803;51.666;7.630;2022-12-29T01:53:26;1.10;;;0.98;;
7523;SDS011;3803;51.666;7.630;2022-12-29T01:53:50;0.80;;;0.80;;
7523;SDS011;3803;51.666;7.630;2022-12-29T01:54:14;0.82;;;0.82;;
7523;SDS011;3803;51.666;7.630;2022-12-29T01:54:46;0.90;;;0.90;;
7523;SDS011;3803;51.666;7.630;2022-12-29T01:55:11;1.00;;;1.00;;
7523;SDS011;3803;51.666;7.630;2022-12-29T01:55:34;0.90;;;0.90;;
7523;SDS011;3803;51.666;7.630;2022-12-29T01:56:03;1.00;;;1.00;;
7523;SDS011;3803;51.666;7.630;2022-12-29T01:56:27;0.80;;;0.80;;
7523;SDS011;3803;51.666;7.630;2022-12-29T01:56:48;0.90;;;0.90;;
7523;SDS011;3803;51.666;7.630;2022-12-29T01:57:11;0.90;;;0.90;;
7523;SDS011;3803;51.666;7.630;2022-12-29T01:57:37;1.45;;;0.98;;
7523;SDS011;3803;51.666;7.630;2022-12-29T01:58:02;1.40;;;1.00;;
7523;SDS011;3803;51.666;7.630;2022-12-29T01:58:26;1.30;;;1.10;;
7523;SDS011;3803;51.666;7.630;2022-12-29T01:58:53;0.80;;;0.80;;
7523;SDS011;3803;51.666;7.630;2022-12-29T01:59:22;0.80;;;0.80;;
7523;SDS011;3803;51.666;7.630;2022-12-29T01:59:52;0.80;;;0.80;;
7523;SDS011;3803;51.666;7.630;2022-12-29T02:00:17;0.90;;;0.90;;
7523;SDS011;3803;51.666;7.630;2022-12-29T02:00:40;1.05;;;0.95;;
7523;SDS011;3803;51.666;7.630;2022-12-29T02:01:01;1.10;;;0.90;;
7523;SDS011;3803;51.666;7.630;2022-12-29T02:01:22;1.10;;;0.77;;
7523;SDS011;3803;51.666;7.630;2022-12-29T02:01:43;0.73;;;0.70;;
7523;SDS011;3803;51.666;7.630;2022-12-29T02:02:04;0.80;;;0.80;;
7523;SDS011;3803;51.666;7.630;2022-12-29T02:02:26;0.80;;;0.80;;
7523;SDS011;3803;51.666;7.630;2022-12-29T02:02:49;0.80;;;0.80;;
7523;SDS011;3803;51.666;7.630;2022-12-29T02:03:12;0.80;;;0.80;;
7523;SDS011;3803;51.666;7.630;2022-12-29T02:03:34;0.80;;;0.80;;
7523;SDS011;3803;51.666;7.630;2022-12-29T02:03:55;0.80;;;0.80;;
7523;SDS011;3803;51.666;7.630;2022-12-29T02:04:18;0.80;;;0.80;;
7523;SDS011;3803;51.666;7.630;2022-12-29T02:04:40;0.95;;;0.85;;
7523;SDS011;3803;51.666;7.630;2022-12-29T02:05:10;0.90;;;0.90;;
7523;SDS011;3803;51.666;7.630;2022-12-29T02:06:42;0.80;;;0.80;;
7523;SDS011;3803;51.666;7.630;2022-12-29T02:07:19;0.80;;;0.80;;
7523;SDS011;3803;51.666;7.630;2022-12-29T02:07:43;1.00;;;0.90;;
7523;SDS011;3803;51.666;7.630;2022-12-29T02:08:05;1.10;;;1.00;;
7523;SDS011;3803;51.666;7.630;2022-12-29T02:08:28;1.05;;;0.98;;
7523;SDS011;3803;51.666;7.630;2022-12-29T02:08:50;0.88;;;0.88;;
7523;SDS011;3803;51.666;7.630;2022-12-29T02:09:12;0.80;;;0.80;;
7523;SDS011;3803;51.666;7.630;2022-12-29T02:09:32;0.80;;;0.80;;
7523;SDS011;3803;51.666;7.630;2022-12-29T02:09:53;0.90;;;0.90;;
7523;SDS011;3803;51.666;7.630;2022-12-29T02:10:15;0.90;;;0.90;;
7523;SDS011;3803;51.666;7.630;2022-12-29T02:10:36;0.90;;;0.90;;
7523;SDS011;3803;51.666;7.630;2022-12-29T02:10:58;0.90;;;0.90;;
7523;SDS011;3803;51.666;7.630;2022-12-29T02:11:20;1.00;;;1.00;;
7523;SDS011;3803;51.666;7.630;2022-12-29T02:11:43;0.90;;;0.90;;
7523;SDS011;3803;51.666;7.630;2022-12-29T02:12:03;0.82;;;0.82;;
7523;SDS011;3803;51.666;7.630;2022-12-29T02:12:24;0.80;;;0.80;;
7523;SDS011;3803;51.666;7.630;2022-12-29T02:12:45;0.80;;;0.80;;
7523;SDS011;3803;51.666;7.630;2022-12-29T02:13:07;0.88;;;0.88;;
7523;SDS011;3803;51.666;7.630;2022-12-29T02:13:27;0.90;;;0.90;;
7523;SDS011;3803;51.666;7.630;2022-12-29T02:13:50;0.90;;;0.90;;
7523;SDS011;3803;51.666;7.630;2022-12-29T02:14:11;0.90;;;0.90;;
7523;SDS011;3803;51.666;7.630;2022-12-29T02:14:33;1.00;;;0.90;;
7523;SDS011;3803;51.666;7.630;2022-12-29T02:14:58;1.00;;;0.90;;
7523;SDS011;3803;51.666;7.630;2022-12-29T02:15:50;1.00;;;0.80;;
7523;SDS011;3803;51.666;7.630;2022-12-29T02:16:24;0.80;;;0.80;;
7523;SDS011;3803;51.666;7.630;2022-12-29T02:17:43;0.80;;;0.80;;
7523;SDS011;3803;51.666;7.630;2022-12-29T02:21:07;1.00;;;0.80;;
7523;SDS011;3803;51.666;7.630;2022-12-29T02:25:18;0.90;;;0.80;;
7523;SDS011;3803;51.666;7.630;2022-12-29T02:28:00;0.88;;;0.88;;
7523;SDS011;3803;51.666;7.630;2022-12-29T02:28:50;0.80;;;0.80;;
7523;SDS011;3803;51.666;7.630;2022-12-29T02:32:08;0.80;;;0.80;;
7523;SDS011;3803;51.666;7.630;2022-12-29T02:33:58;1.20;;;0.90;;
7523;SDS011;3803;51.666;7.630;2022-12-29T02:35:29;1.00;;;0.90;;
7523;SDS011;3803;51.666;7.630;2022-12-29T02:36:00;1.00;;;0.90;;
7523;SDS011;3803;51.666;7.630;2022-12-29T02:36:45;0.90;;;0.80;;
7523;SDS011;3803;51.666;7.630;2022-12-29T02:37:20;1.50;;;0.90;;
7523;SDS011;3803;51.666;7.630;2022-12-29T02:37:56;1.67;;;0.85;;
7523;SDS011;3803;51.666;7.630;2022-12-29T02:38:49;0.82;;;0.80;;
7523;SDS011;3803;51.666;7.630;2022-12-29T02:40:42;0.80;;;0.80;;
7523;SDS011;3803;51.666;7.630;2022-12-29T02:41:12;0.80;;;0.80;;
7523;SDS011;3803;51.666;7.630;2022-12-29T02:41:39;0.80;;;0.80;;
7523;SDS011;3803;51.666;7.630;2022-12-29T02:42:21;0.80;;;0.80;;
7523;SDS011;3803;51.666;7.630;2022-12-29T02:43:11;0.90;;;0.90;;
7523;SDS011;3803;51.666;7.630;2022-12-29T02:43:44;0.80;;;0.80;;
7523;SDS011;3803;51.666;7.630;2022-12-29T02:44:17;0.90;;;0.90;;
7523;SDS011;3803;51.666;7.630;2022-12-29T02:47:18;0.70;;;0.70;;
7523;SDS011;3803;51.666;7.630;2022-12-29T02:48:37;0.80;;;0.80;;
7523;SDS011;3803;51.666;7.630;2022-12-29T02:49:05;1.00;;;0.90;;
7523;SDS011;3803;51.666;7.630;2022-12-29T02:50:17;0.90;;;0.90;;
7523;SDS011;3803;51.666;7.630;2022-12-29T02:50:44;0.90;;;0.90;;
7523;SDS011;3803;51.666;7.630;2022-12-29T02:51:58;1.10;;;0.90;;
7523;SDS011;3803;51.666;7.630;2022-12-29T02:52:36;0.98;;;0.80;;
7523;SDS011;3803;51.666;7.630;2022-12-29T02:53:04;0.90;;;0.90;;
7523;SDS011;3803;51.666;7.630;2022-12-29T02:53:28;0.80;;;0.80;;
7523;SDS011;3803;51.666;7.630;2022-12-29T02:54:12;1.00;;;0.90;;
7523;SDS011;3803;51.666;7.630;2022-12-29T02:54:53;1.10;;;0.80;;
7523;SDS011;3803;51.666;7.630;2022-12-29T02:55:14;0.80;;;0.80;;
7523;SDS011;3803;51.666;7.630;2022-12-29T02:55:35;0.80;;;0.80;;
7523;SDS011;3803;51.666;7.630;2022-12-29T02:55:56;0.80;;;0.80;;
7523;SDS011;3803;51.666;7.630;2022-12-29T02:56:17;0.80;;;0.80;;
7523;SDS011;3803;51.666;7.630;2022-12-29T02:56:38;0.80;;;0.80;;
7523;SDS011;3803;51.666;7.630;2022-12-29T02:56:58;1.40;;;0.90;;
7523;SDS011;3803;51.666;7.630;2022-12-29T02:57:42;1.50;;;0.80;;
7523;SDS011;3803;51.666;7.630;2022-12-29T02:58:13;0.90;;;0.80;;
7523;SDS011;3803;51.666;7.630;2022-12-29T02:58:40;0.80;;;0.80;;
7523;SDS011;3803;51.666;7.630;2022-12-29T02:59:01;0.80;;;0.80;;
7523;SDS011;3803;51.666;7.630;2022-12-29T02:59:23;1.20;;;0.82;;
7523;SDS011;3803;51.666;7.630;2022-12-29T02:59:44;1.20;;;0.90;;
7523;SDS011;3803;51.666;7.630;2022-12-29T03:00:07;1.17;;;0.80;;
7523;SDS011;3803;51.666;7.630;2022-12-29T03:00:37;0.80;;;0.80;;
7523;SDS011;3803;51.666;7.630;2022-12-29T03:02:00;0.95;;;0.85;;
7523;SDS011;3803;51.666;7.630;2022-12-29T03:03:52;0.77;;;0.77;;
7523;SDS011;3803;51.666;7.630;2022-12-29T03:06:32;0.90;;;0.80;;
7523;SDS011;3803;51.666;7.630;2022-12-29T03:08:44;1.10;;;1.00;;
7523;SDS011;3803;51.666;7.630;2022-12-29T03:09:35;1.00;;;0.90;;
7523;SDS011;3803;51.666;7.630;2022-12-29T03:10:09;0.90;;;0.90;;
7523;SDS011;3803;51.666;7.630;2022-12-29T03:12:30;0.80;;;0.80;;